Lowell, MA

7:21 AM EDT on July 29, 2016 (GMT -0400)
APRSWXNET | | Change Station

Elev 187 ft 42.63 °N, 71.29 °W | Updated 32 days ago

Rain
Rain
77 °F
Feels Like 77 °F
N
5
Wind Variable Wind from North
Gusts mph

Today
High -- | Low -- °F
--% Chance of Precip.
Yesterday
High -- | Low -- °F
Precip. -- in
Pressure 29.89 in
Visibility 7.0 miles
Clouds Few 9000 ft
Mostly Cloudy 11000 ft
Dew Point 66 °F
Humidity 69%
Rainfall in
Snow Depth Not available.
5:34 AM 8:08 PM
Waning Crescent, 23% visible
METAR KLWM 291054Z 34005KT 7SM -RA FEW090 BKN110 22/21 A2990 RMK AO2 RAB03 SLP122 P0001 T02220211
Pressure 29.89 in
Visibility 7.0 miles
Clouds Few 9000 ft
Mostly Cloudy 11000 ft
Dew Point 66 °F
Humidity 69%
Rainfall in
Snow Depth Not available.
5:34 AM 8:08 PM
Waning Crescent, 23% visible
METAR KLWM 291054Z 34005KT 7SM -RA FEW090 BKN110 22/21 A2990 RMK AO2 RAB03 SLP122 P0001 T02220211

10-Day Weather Forecast

Almanac

Astronomy

Jul. 29, 2016 Rise Set
Actual Time
Civil Twilight
Nautical Twilight
Astronomical Twilight
Moon
Length of Visible Light
Length of Day
Tomorrow will be .
, % of the Moon is Illuminated

Today's Extremes

State Highs State Lows

Community

WunderPhotos

Upload Photos

1,928,312 photos uploaded!

WunderBlog® & News

Nearby

Air Quality

  Air Quality AQ Index Pollutant
Not available.

Snow Depth

Station Depth Elevation

Earthquake Activity

City Distance Mag. Time & Date
Minimum magnitude displayed is 2.5.

Coastal Water Temperatures

Place Temperature

Stations

Nearby Weather Stations

Station Location Temp. Windchill Dew Point Humidity Wind Precip. Elev Updated Type
                   

Watches & Warnings

There are currently no watches in effect.